Matoaca, Virginia
Current Conditions -  °F | °C
As of 2:15 PM on Thursday 23 Oct 2014 (Local Time) from KPTB Reporting Station
Scattered Clouds Scattered Clouds  
Wind Chill: 67°   Ceiling: Unl
Heat Index: 67°   Visibility: 10mi
Dew Point: 42°   Wind: 15mph
Humidity: 40%   Direction: 320°NW
Pressure: 29.89"   Gusts: 20mph
Location:  37.2163°N, 77.4783°W
Report Text: KPTB 231815Z AUTO 32013G17KT 10SM SCT047 19/06 A2989 RMK AO2 T01930055
Loading
Personal Weather Stations






























Interactive Weather Map New forecast layout! Learn more

10-Day Weather Forecast

Advertisements
Track Severe Weather on mobile